Indianapolis, IN

1:02 PM EST on February 28, 2015 (GMT -0500)
North Fountain Square | Change Station
CLOSE
Current Station
Personal Weather Station
Location: Indianapolis, IN
Elevation: 738 ft
Nearby Weather Stations
Active Advisory: Winter Weather Advisory

Elev 738 ft 39.76 °N, 86.14 °W | Updated 31 seconds ago

Overcast
Overcast
24.4 °F
Feels Like 19 °F
N
4.3
Wind Variable Wind from East
Gusts 4.9 mph

Today
High -- | Low -- °F
--% Chance of Precip.
Yesterday
High -- | Low -- °F
Precip. -- in
7:19 AM 6:35 PM
Waxing Gibbous, 79% visible
Pressure 30.69 in
Visibility 10.0 miles
Clouds Mostly Cloudy 10000 ft
Mostly Cloudy 25000 ft
Windchill 19 °F
Dew Point -3 °F
Humidity 29%
Rainfall 0.00 in
Snow Depth Not available.
UV 3 out of 12
Pollen .60 out of 12
Air Quality Not available.
Flu Activity Not available.
METAR KIND 281754Z 12010KT 10SM BKN100 BKN250 M06/M15 A3064 RMK AO2 SLP391 T10561150 11056 21111 58017

More Conditions Fewer Conditions

Pressure 30.69 in
Visibility 10.0 miles
Clouds Mostly Cloudy 10000 ft
Mostly Cloudy 25000 ft
Windchill 19 °F
Dew Point -3 °F
Humidity 29%
Rainfall 0.00 in
Snow Depth Not available.
UV 3 out of 12
Pollen .60 out of 12
Air Quality Not available.
Flu Activity Not available.
METAR KIND 281754Z 12010KT 10SM BKN100 BKN250 M06/M15 A3064 RMK AO2 SLP391 T10561150 11056 21111 58017

More Conditions Fewer Conditions

10-Day Weather Forecast

Almanac

Astronomy

Feb. 28, 2015 Rise Set
Actual Time
Civil Twilight
Nautical Twilight
Astronomical Twilight
Moon
Length of Visible Light
Length of Day
Tomorrow will be .
, % of the Moon is Illuminated

Today's Extremes

State Highs State Lows

Community

WunderPhotos

Upload Photos

1,801,103 photos uploaded!

WunderBlogs® & News

Nearby

Air Quality

  Air Quality AQ Index Pollutant
Not available.

Snow Depth

Station Depth Elevation

Earthquake Activity

City Distance Mag. Time & Date
Minimum magnitude displayed is 2.5.

Coastal Water Temperatures

Place Temperature

Nearby Weather Stations

Winter Weather Advisory
Statement as of 10:50 AM EST on February 28, 2015

... Winter Weather Advisory remains in effect from 7 PM this
evening to 7 PM EST Sunday...

A Winter Weather Advisory remains in effect from 7 PM this
evening to 7 PM EST Sunday for accumulating snow of 4 to 7 inches.


* Timing... accumulating snow beginning around sunset and lasting
through the day Sunday. The snow may mix with rain at times
during the day Sunday.

* Main impact... hazardous travel conditions due to accumulating
snow.

* Other impacts... reduced visibility in areas of heavier snow.

Precautionary/preparedness actions...

A Winter Weather Advisory for snow means that periods of snow
will cause primarily travel difficulties. Be prepared for snow
covered roads and limited visibilities... and use caution while
driving.